Time;durP1;ratioP1;P1;durP2;ratioP2;P2;SDS_P1;SDS_P2;PMS_P1;PMS_P2;Temp;Humidity;BMP_temperature;BMP_pressure;BME280_temperature;BME280_humidity;BME280_pressure;Samples;Min_cycle;Max_cycle;Signal;HPM_P1;HPM_P2
2023/08/28 00:02:17;;;;;;;6.20;0.80;;;20.70;99.90;;;;;;4954579;29;20424;-38
2023/08/28 00:04:43;;;;;;;0.80;0.68;;;20.70;99.90;;;;;;4954562;29;20106;-38
2023/08/28 00:07:09;;;;;;;0.60;0.55;;;20.70;99.90;;;;;;4954550;29;20030;-39
2023/08/28 00:09:34;;;;;;;1.23;0.60;;;20.70;99.90;;;;;;4954068;29;20023;-38
2023/08/28 00:12:01;;;;;;;1.90;0.80;;;20.70;99.90;;;;;;4954415;29;20500;-38
2023/08/28 00:14:27;;;;;;;1.80;0.70;;;20.70;99.90;;;;;;4953996;29;20030;-38
2023/08/28 00:16:53;;;;;;;0.90;0.68;;;20.70;99.90;;;;;;4954535;29;20035;-38
2023/08/28 00:19:19;;;;;;;2.55;0.70;;;20.70;99.90;;;;;;4953894;29;20035;-41
2023/08/28 00:21:44;;;;;;;0.80;0.70;;;20.70;99.90;;;;;;4954201;29;20023;-39
2023/08/28 00:24:10;;;;;;;1.60;0.77;;;20.70;99.90;;;;;;4953890;29;20039;-38
2023/08/28 00:26:36;;;;;;;4.85;0.80;;;20.60;99.90;;;;;;4954646;29;20027;-38
2023/08/28 00:29:01;;;;;;;2.85;1.00;;;20.60;99.90;;;;;;4953818;29;20520;-38
2023/08/28 00:31:27;;;;;;;3.78;0.90;;;20.70;99.90;;;;;;4953935;29;20041;-38
2023/08/28 00:33:53;;;;;;;2.20;0.70;;;20.60;99.90;;;;;;4953918;28;20031;-38
2023/08/28 00:36:19;;;;;;;0.85;0.57;;;20.60;99.90;;;;;;4954066;29;20086;-40
2023/08/28 00:38:44;;;;;;;0.90;0.55;;;20.70;99.90;;;;;;4953622;29;20063;-38
2023/08/28 00:41:11;;;;;;;1.35;0.82;;;20.60;99.90;;;;;;4953686;29;20497;-39
2023/08/28 00:43:37;;;;;;;3.10;0.80;;;20.70;99.90;;;;;;4953634;29;20053;-39
2023/08/28 00:46:03;;;;;;;1.45;0.60;;;20.60;99.90;;;;;;4953821;28;20023;-41
2023/08/28 00:48:29;;;;;;;1.10;0.70;;;20.60;99.90;;;;;;4953568;29;20118;-38
2023/08/28 00:50:56;;;;;;;0.88;0.60;;;20.70;99.90;;;;;;4953752;29;20577;-39
2023/08/28 00:53:22;;;;;;;1.63;0.63;;;20.60;99.90;;;;;;4953528;29;20401;-40
2023/08/28 00:55:48;;;;;;;4.30;0.60;;;20.60;99.90;;;;;;4953659;29;20070;-38
2023/08/28 00:58:14;;;;;;;0.93;0.50;;;20.60;99.90;;;;;;4953797;29;20055;-38
2023/08/28 01:00:41;;;;;;;2.30;0.68;;;20.60;99.90;;;;;;4953706;29;20070;-38
2023/08/28 01:03:07;;;;;;;1.15;0.60;;;20.60;99.90;;;;;;4953954;29;20033;-38
2023/08/28 01:06:04;;;;;;;1.33;0.75;;;20.60;99.90;;;;;;4955556;28;20015;-40
2023/08/28 01:08:53;;;;;;;5.75;0.70;;;20.60;99.90;;;;;;4953833;29;20123;-38
2023/08/28 01:11:33;;;;;;;1.30;0.60;;;20.60;99.90;;;;;;4957549;29;20038;-42
2023/08/28 01:14:15;;;;;;;4.78;0.85;;;20.60;99.90;;;;;;4957567;29;20067;-38
2023/08/28 01:16:44;;;;;;;0.70;0.60;;;20.60;99.90;;;;;;4957419;29;20019;-38
2023/08/28 01:19:29;;;;;;;1.63;0.60;;;20.60;99.90;;;;;;4955856;29;20386;-38
2023/08/28 01:22:07;;;;;;;2.03;0.63;;;20.60;99.90;;;;;;4957390;29;20384;-39
2023/08/28 01:24:33;;;;;;;1.05;0.70;;;20.60;99.90;;;;;;4957229;29;20027;-38
2023/08/28 01:26:59;;;;;;;1.88;0.85;;;20.60;99.90;;;;;;4957249;29;20059;-38
2023/08/28 01:29:26;;;;;;;2.53;0.70;;;20.60;99.90;;;;;;4956813;29;20480;-39
2023/08/28 01:31:52;;;;;;;2.22;0.70;;;20.60;99.90;;;;;;4957091;29;20031;-40
2023/08/28 01:34:18;;;;;;;2.90;0.68;;;20.60;99.90;;;;;;4956902;29;20031;-39
2023/08/28 01:36:58;;;;;;;2.70;0.75;;;20.60;99.90;;;;;;4956967;29;20446;-40
2023/08/28 01:39:31;;;;;;;5.43;0.80;;;20.60;99.90;;;;;;4956540;29;20031;-40
2023/08/28 01:41:58;;;;;;;0.60;0.30;;;20.60;99.90;;;;;;4956925;29;20027;-39
2023/08/28 01:44:27;;;;;;;1.83;0.60;;;20.60;99.90;;;;;;4956770;29;20059;-40
2023/08/28 01:46:53;;;;;;;4.63;0.77;;;20.60;99.90;;;;;;4956998;29;20034;-38
2023/08/28 01:49:20;;;;;;;1.25;0.40;;;20.50;99.90;;;;;;4956357;29;20079;-39
2023/08/28 01:51:46;;;;;;;1.70;0.70;;;20.50;99.90;;;;;;4956698;29;20031;-39
2023/08/28 01:54:11;;;;;;;1.52;0.70;;;20.60;99.90;;;;;;4956669;29;20401;-38
2023/08/28 01:56:37;;;;;;;3.80;0.80;;;20.50;99.90;;;;;;4956881;29;20032;-39
2023/08/28 01:59:03;;;;;;;2.65;0.60;;;20.60;99.90;;;;;;4938949;29;20082;-38
2023/08/28 02:01:28;;;;;;;3.00;0.73;;;20.60;99.90;;;;;;4956414;29;20093;-38
2023/08/28 02:03:54;;;;;;;2.88;0.80;;;20.50;99.90;;;;;;4956510;29;20070;-39
2023/08/28 02:06:20;;;;;;;1.08;0.70;;;20.60;99.90;;;;;;4956640;29;20031;-39
2023/08/28 02:08:45;;;;;;;1.75;0.60;;;20.50;99.90;;;;;;4956168;29;20058;-38
2023/08/28 02:11:11;;;;;;;1.98;0.60;;;20.50;99.90;;;;;;4956406;29;20031;-41
2023/08/28 02:13:37;;;;;;;1.27;0.70;;;20.50;99.90;;;;;;4956427;29;20432;-40
2023/08/28 02:16:03;;;;;;;1.17;0.65;;;20.50;99.90;;;;;;4955862;28;20019;-39
2023/08/28 02:18:30;;;;;;;0.88;0.50;;;20.50;99.90;;;;;;4955954;29;20031;-38
2023/08/28 02:20:56;;;;;;;0.90;0.75;;;20.50;99.90;;;;;;4955992;28;20558;-38
2023/08/28 02:23:22;;;;;;;0.52;0.40;;;20.50;99.90;;;;;;4956368;29;20080;-38
2023/08/28 02:25:48;;;;;;;0.63;0.50;;;20.50;99.90;;;;;;4956046;29;20019;-38
2023/08/28 02:28:15;;;;;;;1.02;0.47;;;20.50;99.90;;;;;;4955954;29;20444;-38
2023/08/28 02:30:40;;;;;;;0.70;0.57;;;20.50;99.90;;;;;;4955815;29;20481;-38
2023/08/28 02:33:06;;;;;;;2.10;0.70;;;20.50;99.90;;;;;;4955913;29;20039;-39
2023/08/28 02:35:32;;;;;;;0.98;0.50;;;20.50;99.90;;;;;;4956089;29;20054;-38
2023/08/28 02:37:57;;;;;;;0.80;0.50;;;20.50;99.90;;;;;;4955851;29;20039;-39
2023/08/28 02:40:24;;;;;;;0.52;0.45;;;20.50;99.90;;;;;;4955511;29;20028;-39
2023/08/28 02:42:50;;;;;;;2.72;0.90;;;20.50;99.90;;;;;;4955901;29;20441;-39
2023/08/28 02:45:16;;;;;;;2.63;0.70;;;20.50;99.90;;;;;;4956136;29;20106;-39
2023/08/28 02:47:41;;;;;;;0.57;0.40;;;20.50;99.90;;;;;;4955466;29;20126;-38
2023/08/28 02:50:07;;;;;;;1.02;0.50;;;20.50;99.90;;;;;;4955638;29;20042;-38
2023/08/28 02:52:33;;;;;;;1.95;0.68;;;20.50;99.90;;;;;;4955917;29;20027;-38
2023/08/28 02:54:58;;;;;;;0.82;0.50;;;20.50;99.90;;;;;;4955532;29;20444;-39
2023/08/28 02:57:24;;;;;;;1.23;0.43;;;20.50;99.90;;;;;;4955610;29;20062;-38
2023/08/28 02:59:50;;;;;;;2.10;0.50;;;20.50;99.90;;;;;;4955333;29;20033;-38
2023/08/28 03:02:15;;;;;;;0.47;0.40;;;20.50;99.90;;;;;;4955293;29;20082;-38
2023/08/28 03:04:44;;;;;;;1.40;0.50;;;20.50;99.90;;;;;;4955486;29;20445;-39
2023/08/28 03:07:09;;;;;;;2.05;0.57;;;20.50;99.90;;;;;;4955369;29;20554;-38
2023/08/28 03:09:35;;;;;;;0.70;0.50;;;20.50;99.90;;;;;;4954965;29;20039;-39
2023/08/28 03:12:01;;;;;;;2.80;0.60;;;20.40;99.90;;;;;;4955294;28;20035;-39
2023/08/28 03:14:27;;;;;;;0.70;0.50;;;20.50;99.90;;;;;;4955253;29;20031;-40
2023/08/28 03:16:52;;;;;;;0.73;0.60;;;20.40;99.90;;;;;;4955291;29;20027;-39
2023/08/28 03:19:18;;;;;;;1.38;0.50;;;20.50;99.90;;;;;;4954936;29;20027;-39
2023/08/28 03:21:44;;;;;;;1.45;0.50;;;20.50;99.90;;;;;;4955173;29;20461;-38
2023/08/28 03:24:09;;;;;;;1.10;0.45;;;20.50;99.90;;;;;;4955033;29;20039;-38
2023/08/28 03:26:35;;;;;;;1.48;0.73;;;20.40;99.90;;;;;;4955442;29;20031;-38
2023/08/28 03:29:01;;;;;;;2.08;0.50;;;20.40;99.90;;;;;;4954767;28;20083;-38
2023/08/28 03:31:30;;;;;;;2.40;0.70;;;20.40;99.90;;;;;;4954935;29;20066;-38
2023/08/28 03:33:56;;;;;;;1.83;0.70;;;20.40;99.90;;;;;;4954816;29;20378;-39
2023/08/28 03:36:22;;;;;;;1.02;0.60;;;20.40;99.90;;;;;;4954922;29;20485;-39
2023/08/28 03:38:47;;;;;;;0.50;0.50;;;20.40;99.90;;;;;;4955128;29;20131;-38
2023/08/28 03:41:13;;;;;;;3.08;0.55;;;20.40;99.90;;;;;;4954971;29;20015;-39
2023/08/28 03:43:38;;;;;;;1.80;0.60;;;20.40;99.90;;;;;;4954654;29;20023;-39
2023/08/28 03:46:04;;;;;;;0.82;0.50;;;20.40;99.90;;;;;;4954390;29;20136;-39
2023/08/28 03:48:30;;;;;;;5.28;0.60;;;20.40;99.90;;;;;;4954495;29;20551;-38
2023/08/28 03:50:55;;;;;;;0.65;0.35;;;20.40;99.90;;;;;;4954244;29;20488;-38
2023/08/28 03:53:21;;;;;;;0.75;0.50;;;20.40;99.90;;;;;;4954479;29;20031;-38
2023/08/28 03:55:46;;;;;;;0.90;0.50;;;20.40;99.90;;;;;;4954569;29;20031;-40
2023/08/28 03:58:12;;;;;;;1.30;0.45;;;20.40;99.90;;;;;;4954350;29;20301;-40
2023/08/28 04:00:39;;;;;;;3.08;0.47;;;20.40;99.90;;;;;;4954369;29;20032;-38
2023/08/28 04:03:08;;;;;;;2.63;0.50;;;20.40;99.90;;;;;;4954349;29;20035;-39
2023/08/28 04:05:40;;;;;;;1.45;0.40;;;20.40;99.90;;;;;;4954287;29;20031;-38
2023/08/28 04:08:06;;;;;;;2.53;0.60;;;20.40;99.90;;;;;;4954079;29;20034;-38
2023/08/28 04:10:32;;;;;;;1.10;0.55;;;20.40;99.90;;;;;;4954323;29;20032;-38
2023/08/28 04:12:57;;;;;;;0.52;0.50;;;20.40;99.90;;;;;;4954375;29;20441;-40
2023/08/28 04:15:23;;;;;;;3.10;0.60;;;20.40;99.90;;;;;;4954162;29;20110;-39
2023/08/28 04:17:48;;;;;;;1.40;0.60;;;20.40;99.90;;;;;;4954048;29;20438;-39
2023/08/28 04:20:16;;;;;;;3.38;0.68;;;20.40;99.90;;;;;;4953992;29;20042;-39
2023/08/28 04:22:46;;;;;;;3.83;0.70;;;20.40;99.90;;;;;;4954187;29;20023;-38
2023/08/28 04:25:12;;;;;;;2.75;0.60;;;20.40;99.90;;;;;;4954043;29;20370;-38
2023/08/28 04:27:39;;;;;;;1.58;0.50;;;20.30;99.90;;;;;;4936872;29;20031;-38
2023/08/28 04:30:06;;;;;;;0.60;0.43;;;20.40;99.90;;;;;;4953762;29;20094;-39
2023/08/28 04:32:32;;;;;;;1.17;0.50;;;20.30;99.90;;;;;;4953914;29;20500;-38
2023/08/28 04:34:58;;;;;;;1.80;0.60;;;20.30;99.90;;;;;;4954085;29;20031;-38
2023/08/28 04:37:27;;;;;;;2.47;0.63;;;20.30;99.90;;;;;;4954283;29;20464;-38
2023/08/28 04:39:53;;;;;;;0.80;0.30;;;20.30;99.90;;;;;;4955887;28;20572;-41
2023/08/28 04:42:20;;;;;;;2.83;0.60;;;20.30;99.90;;;;;;4960307;28;20032;-39
2023/08/28 04:44:45;;;;;;;0.65;0.47;;;20.30;99.90;;;;;;4960322;28;20042;-38
2023/08/28 04:47:13;;;;;;;2.38;0.60;;;20.30;99.90;;;;;;4960153;29;20035;-39
2023/08/28 04:49:38;;;;;;;1.17;0.47;;;20.30;99.90;;;;;;4959748;28;20035;-38
2023/08/28 04:52:04;;;;;;;5.70;1.52;;;20.30;99.90;;;;;;4959943;28;20039;-38
2023/08/28 04:54:30;;;;;;;3.80;1.30;;;20.00;99.90;;;;;;4960270;28;20073;-38
2023/08/28 04:56:57;;;;;;;3.50;1.02;;;19.50;99.90;;;;;;4959785;28;20487;-38
2023/08/28 04:59:23;;;;;;;7.00;1.10;;;19.40;99.90;;;;;;4959726;29;20028;-37
2023/08/28 05:01:48;;;;;;;2.33;1.00;;;19.30;99.90;;;;;;4959649;29;20515;-38
2023/08/28 05:04:14;;;;;;;3.22;1.10;;;19.40;99.90;;;;;;4959973;29;20499;-38
2023/08/28 05:06:39;;;;;;;3.88;0.75;;;19.50;99.90;;;;;;4959792;28;20039;-38
2023/08/28 05:09:05;;;;;;;1.30;0.80;;;19.50;99.90;;;;;;4959389;28;20415;-39
2023/08/28 05:11:31;;;;;;;4.57;0.70;;;19.60;99.90;;;;;;4959625;29;20600;-38
2023/08/28 05:13:57;;;;;;;3.70;0.70;;;19.60;99.90;;;;;;4959634;29;20114;-38
2023/08/28 05:16:23;;;;;;;2.25;1.08;;;19.70;99.90;;;;;;4959994;28;20015;-38
2023/08/28 05:18:49;;;;;;;3.17;0.80;;;19.70;99.90;;;;;;4959284;28;20388;-37
2023/08/28 05:21:14;;;;;;;3.90;0.95;;;19.80;99.90;;;;;;4959761;28;20051;-38
2023/08/28 05:23:40;;;;;;;2.05;0.90;;;19.80;99.90;;;;;;4959637;28;20560;-38
2023/08/28 05:26:05;;;;;;;2.75;0.65;;;19.90;99.90;;;;;;4959444;29;20027;-38
2023/08/28 05:28:34;;;;;;;1.58;0.80;;;19.80;99.90;;;;;;4959475;29;20024;-38
2023/08/28 05:31:00;;;;;;;0.88;0.63;;;19.90;99.90;;;;;;4959163;28;20118;-37
2023/08/28 05:33:26;;;;;;;1.13;0.70;;;19.90;99.90;;;;;;4959499;29;20114;-38
2023/08/28 05:35:52;;;;;;;6.45;1.08;;;19.90;99.90;;;;;;4959697;29;20119;-38
2023/08/28 05:38:17;;;;;;;3.65;0.90;;;19.90;99.90;;;;;;4959341;28;20038;-38
2023/08/28 05:40:43;;;;;;;2.35;0.85;;;19.90;99.90;;;;;;4959284;28;20392;-37
2023/08/28 05:43:09;;;;;;;2.60;0.88;;;20.00;99.90;;;;;;4959621;28;20448;-38
2023/08/28 05:45:35;;;;;;;3.38;0.93;;;20.00;99.90;;;;;;4959386;29;20046;-39
2023/08/28 05:48:00;;;;;;;3.53;0.80;;;19.90;99.90;;;;;;4959229;28;20078;-37
2023/08/28 05:50:26;;;;;;;2.35;0.57;;;20.00;99.90;;;;;;4959023;28;20025;-38
2023/08/28 05:52:51;;;;;;;2.67;0.68;;;20.00;99.90;;;;;;4955302;29;20045;-38
2023/08/28 05:55:17;;;;;;;3.13;0.80;;;20.00;99.90;;;;;;4956413;29;20031;-38
2023/08/28 05:57:43;;;;;;;2.08;0.80;;;20.00;99.90;;;;;;4956252;29;20437;-38
2023/08/28 06:00:09;;;;;;;2.38;0.68;;;20.00;99.90;;;;;;4956045;29;20385;-38
2023/08/28 06:02:34;;;;;;;3.33;0.88;;;20.00;99.90;;;;;;4956436;29;20050;-38
2023/08/28 06:05:00;;;;;;;2.55;0.60;;;20.00;99.90;;;;;;4956647;29;20497;-38
2023/08/28 06:07:26;;;;;;;3.40;0.80;;;20.00;99.90;;;;;;4956270;29;20027;-38
2023/08/28 06:09:52;;;;;;;4.03;0.80;;;20.00;99.90;;;;;;4955934;29;20446;-38
2023/08/28 06:12:17;;;;;;;3.17;0.70;;;20.00;99.90;;;;;;4956472;29;20206;-39
2023/08/28 06:14:43;;;;;;;2.38;0.88;;;20.00;99.90;;;;;;4955854;29;20170;-38
2023/08/28 06:17:09;;;;;;;1.65;0.90;;;20.00;99.90;;;;;;4955744;29;20474;-38
2023/08/28 06:19:34;;;;;;;1.10;0.63;;;20.00;99.90;;;;;;4955537;29;20045;-38
2023/08/28 06:22:04;;;;;;;2.10;0.85;;;20.00;99.90;;;;;;4955827;29;20393;-38
2023/08/28 06:24:31;;;;;;;3.60;0.90;;;20.00;99.90;;;;;;4955938;29;20078;-38
2023/08/28 06:26:57;;;;;;;2.13;0.75;;;20.10;99.90;;;;;;4938583;29;20027;-38
2023/08/28 06:29:22;;;;;;;1.42;0.75;;;20.00;99.90;;;;;;4955713;29;20389;-38
2023/08/28 06:31:48;;;;;;;1.65;0.90;;;20.10;99.90;;;;;;4955889;29;20046;-37
2023/08/28 06:34:14;;;;;;;1.08;0.80;;;20.00;99.90;;;;;;4955887;29;20039;-38
2023/08/28 06:36:40;;;;;;;1.65;0.63;;;20.00;99.90;;;;;;4955696;29;20023;-38
2023/08/28 06:39:07;;;;;;;1.23;0.68;;;20.00;99.90;;;;;;4955050;29;20031;-38
2023/08/28 06:41:33;;;;;;;2.65;1.00;;;20.00;99.90;;;;;;4955822;29;20533;-38
2023/08/28 06:44:00;;;;;;;1.25;0.85;;;20.10;99.90;;;;;;4955414;29;20440;-37
2023/08/28 06:46:26;;;;;;;1.30;0.77;;;20.00;99.90;;;;;;4955731;29;20094;-38
2023/08/28 06:48:52;;;;;;;1.20;0.70;;;20.00;99.90;;;;;;4955140;29;20035;-38
2023/08/28 06:51:19;;;;;;;2.38;0.55;;;20.10;99.90;;;;;;4955330;29;20086;-38
2023/08/28 06:53:45;;;;;;;2.25;0.70;;;20.10;99.90;;;;;;4955339;29;20059;-37
2023/08/28 06:56:10;;;;;;;2.85;0.70;;;20.10;99.90;;;;;;4955012;29;20055;-38
2023/08/28 06:58:36;;;;;;;1.73;0.55;;;20.00;99.90;;;;;;4954744;29;20046;-37
2023/08/28 07:01:02;;;;;;;1.52;0.70;;;20.10;99.90;;;;;;4954721;29;20031;-37
2023/08/28 07:03:28;;;;;;;2.72;0.70;;;20.10;99.90;;;;;;4954488;28;20021;-38
2023/08/28 07:05:53;;;;;;;2.15;0.70;;;20.10;99.90;;;;;;4954850;29;20030;-38
2023/08/28 07:08:19;;;;;;;0.75;0.60;;;20.10;99.90;;;;;;4954609;29;20083;-38
2023/08/28 07:10:45;;;;;;;1.75;0.68;;;20.10;99.90;;;;;;4954436;29;20023;-38
2023/08/28 07:13:10;;;;;;;4.05;0.90;;;20.10;99.90;;;;;;4954567;29;20206;-38
2023/08/28 07:15:36;;;;;;;2.08;0.90;;;20.10;99.90;;;;;;4954703;29;20461;-37
2023/08/28 07:18:03;;;;;;;3.20;0.77;;;20.10;99.90;;;;;;4954671;29;20115;-38
2023/08/28 07:20:28;;;;;;;2.65;1.00;;;20.10;99.90;;;;;;4954594;28;20023;-38
2023/08/28 07:22:54;;;;;;;1.50;0.70;;;20.10;99.90;;;;;;4954763;29;20024;-38
2023/08/28 07:25:22;;;;;;;1.10;0.80;;;20.10;99.90;;;;;;4954935;29;20082;-38
2023/08/28 07:27:51;;;;;;;8.05;1.60;;;20.10;99.90;;;;;;4954937;29;20110;-38
2023/08/28 07:30:17;;;;;;;4.35;1.90;;;19.70;99.90;;;;;;4955268;29;20027;-37
2023/08/28 07:32:42;;;;;;;4.55;1.30;;;19.20;99.90;;;;;;4954707;29;20037;-37
2023/08/28 07:35:08;;;;;;;6.28;1.40;;;18.70;99.90;;;;;;4954270;29;20477;-37
2023/08/28 07:37:35;;;;;;;5.10;1.30;;;18.70;99.90;;;;;;4954266;29;20102;-37
2023/08/28 07:40:04;;;;;;;1.92;1.00;;;18.70;99.90;;;;;;4954034;29;20023;-37
2023/08/28 07:42:29;;;;;;;2.55;1.00;;;18.80;99.90;;;;;;4954194;29;20024;-37
2023/08/28 07:44:55;;;;;;;4.30;1.00;;;18.90;99.90;;;;;;4955703;29;20091;-37
2023/08/28 07:47:21;;;;;;;7.53;1.10;;;19.00;99.90;;;;;;4954986;29;20553;-38
2023/08/28 07:49:47;;;;;;;5.45;1.00;;;19.00;99.90;;;;;;4953802;29;20023;-37
2023/08/28 07:52:12;;;;;;;4.55;1.00;;;19.00;99.90;;;;;;4955207;29;20035;-36
2023/08/28 07:54:38;;;;;;;2.92;1.00;;;19.10;99.90;;;;;;4955098;29;20363;-37
2023/08/28 07:57:04;;;;;;;1.52;0.82;;;19.20;99.90;;;;;;4937549;29;20027;-37
2023/08/28 07:59:30;;;;;;;2.72;1.17;;;19.20;99.90;;;;;;4954492;28;20540;-37
2023/08/28 08:01:57;;;;;;;4.45;0.90;;;19.20;99.90;;;;;;4953977;29;20031;-38
2023/08/28 08:04:24;;;;;;;2.90;0.90;;;19.30;99.90;;;;;;4954062;29;20481;-37
2023/08/28 08:06:50;;;;;;;1.23;0.70;;;19.30;99.90;;;;;;4953997;29;20505;-37
2023/08/28 08:09:16;;;;;;;2.38;1.00;;;19.40;99.90;;;;;;4953643;29;20114;-37
2023/08/28 08:11:41;;;;;;;1.83;0.80;;;19.40;99.90;;;;;;4953893;29;20046;-38
2023/08/28 08:14:07;;;;;;;1.67;0.88;;;19.40;99.90;;;;;;4953507;28;20023;-37
2023/08/28 08:16:33;;;;;;;1.48;0.90;;;19.50;99.90;;;;;;4953668;29;20019;-37
2023/08/28 08:18:59;;;;;;;2.92;0.80;;;19.50;99.90;;;;;;4953584;29;20078;-38
2023/08/28 08:21:24;;;;;;;2.13;0.70;;;19.50;99.90;;;;;;4954175;29;20430;-37
2023/08/28 08:23:50;;;;;;;3.03;1.08;;;19.50;99.90;;;;;;4954079;29;20079;-37
2023/08/28 08:26:16;;;;;;;2.17;1.02;;;19.50;99.90;;;;;;4954164;29;20070;-37
2023/08/28 08:28:41;;;;;;;2.72;0.80;;;19.60;99.90;;;;;;4936462;29;20079;-37
2023/08/28 08:31:07;;;;;;;1.63;0.85;;;19.60;99.90;;;;;;4954145;29;20035;-37
2023/08/28 08:33:33;;;;;;;3.25;0.80;;;19.60;99.90;;;;;;4953907;29;20030;-38
2023/08/28 08:35:58;;;;;;;1.30;0.52;;;19.60;99.90;;;;;;4953787;29;20477;-37
2023/08/28 08:38:24;;;;;;;2.17;0.88;;;19.60;99.90;;;;;;4953659;29;20035;-37
2023/08/28 08:40:55;;;;;;;1.48;0.85;;;19.60;99.90;;;;;;4953876;29;20030;-37
2023/08/28 08:43:21;;;;;;;2.83;0.82;;;19.60;99.90;;;;;;4954023;29;20023;-37
2023/08/28 08:45:50;;;;;;;1.45;0.70;;;19.70;99.90;;;;;;4954115;29;20082;-38
2023/08/28 08:48:18;;;;;;;2.03;0.77;;;19.70;99.90;;;;;;4953367;29;20027;-37
2023/08/28 08:50:47;;;;;;;1.50;0.70;;;19.70;99.90;;;;;;4953600;29;20551;-37
2023/08/28 08:53:37;;;;;;;1.92;0.77;;;19.70;99.90;;;;;;4954399;29;20042;-37
2023/08/28 08:56:05;;;;;;;1.55;0.90;;;19.70;99.90;;;;;;4953829;29;20035;-37
2023/08/28 08:58:32;;;;;;;4.10;0.98;;;19.70;99.90;;;;;;4953945;29;20027;-37
2023/08/28 09:00:58;;;;;;;1.13;0.70;;;19.70;99.90;;;;;;4953959;29;20035;-37
2023/08/28 09:03:25;;;;;;;1.13;0.70;;;19.70;99.90;;;;;;4954006;29;20028;-37
2023/08/28 09:05:52;;;;;;;1.60;0.70;;;19.70;99.90;;;;;;4953900;29;20034;-37
2023/08/28 09:08:18;;;;;;;1.27;0.82;;;19.70;99.90;;;;;;4953689;29;20043;-37
2023/08/28 09:10:45;;;;;;;1.25;0.68;;;19.70;99.90;;;;;;4954014;29;20098;-37
2023/08/28 09:13:11;;;;;;;1.60;0.80;;;19.70;99.90;;;;;;4954130;29;20381;-37
2023/08/28 09:15:37;;;;;;;1.45;0.68;;;19.80;99.90;;;;;;4953750;29;20026;-37
2023/08/28 09:18:04;;;;;;;1.35;0.63;;;19.80;99.90;;;;;;4953819;29;20027;-38
2023/08/28 09:20:29;;;;;;;1.73;0.90;;;19.80;99.90;;;;;;4953529;29;20027;-38
2023/08/28 09:22:55;;;;;;;1.25;0.70;;;19.80;99.90;;;;;;4953594;29;20481;-37
2023/08/28 09:25:22;;;;;;;1.13;0.70;;;19.80;99.90;;;;;;4953153;28;20038;-38
2023/08/28 09:27:56;;;;;;;0.65;0.50;;;19.80;99.90;;;;;;4957070;29;20110;-37
2023/08/28 09:30:31;;;;;;;1.20;0.73;;;19.80;99.90;;;;;;4957210;29;20023;-37
2023/08/28 09:33:01;;;;;;;0.80;0.60;;;19.80;99.90;;;;;;4957743;29;20027;-37
2023/08/28 09:35:43;;;;;;;1.20;0.70;;;19.80;99.90;;;;;;4957122;29;20027;-37
2023/08/28 09:38:10;;;;;;;0.90;0.60;;;19.80;99.90;;;;;;4957899;29;20037;-40
2023/08/28 09:40:40;;;;;;;1.70;0.80;;;19.80;99.90;;;;;;4956563;29;20027;-38
2023/08/28 09:43:16;;;;;;;6.50;2.13;;;19.90;99.90;;;;;;4956882;29;20028;-38
2023/08/28 09:45:43;;;;;;;7.40;1.95;;;19.70;99.90;;;;;;4956975;29;20051;-37
2023/08/28 09:48:10;;;;;;;5.43;1.80;;;19.60;99.90;;;;;;4956783;29;20034;-40
2023/08/28 09:50:39;;;;;;;5.50;1.55;;;19.50;99.90;;;;;;4956608;29;20019;-38
2023/08/28 09:53:13;;;;;;;3.17;1.27;;;19.50;99.90;;;;;;4957096;28;20039;-40
2023/08/28 09:55:39;;;;;;;6.40;1.25;;;19.50;99.90;;;;;;4956349;29;20031;-40
2023/08/28 09:58:10;;;;;;;4.85;1.13;;;19.60;99.90;;;;;;4956666;29;20066;-40
2023/08/28 10:00:37;;;;;;;3.70;1.10;;;19.60;99.90;;;;;;4956210;29;20572;-38
2023/08/28 10:03:05;;;;;;;3.72;1.00;;;19.70;99.90;;;;;;4956414;29;20393;-40
2023/08/28 10:05:32;;;;;;;4.18;1.30;;;19.70;99.90;;;;;;4956542;29;20023;-38
2023/08/28 10:08:02;;;;;;;2.60;1.05;;;19.70;99.90;;;;;;4956270;29;20067;-42
2023/08/28 10:10:29;;;;;;;1.95;1.00;;;19.70;99.90;;;;;;4956083;29;20473;-38
2023/08/28 10:12:55;;;;;;;2.88;0.80;;;19.80;99.90;;;;;;4956198;29;20746;-38
2023/08/28 10:15:22;;;;;;;5.00;1.02;;;19.80;99.90;;;;;;4956229;29;20027;-39
2023/08/28 10:17:49;;;;;;;3.10;1.00;;;19.80;99.90;;;;;;4956337;29;20027;-39
2023/08/28 10:20:18;;;;;;;2.60;0.85;;;19.80;99.90;;;;;;4955862;29;20028;-42
2023/08/28 10:22:46;;;;;;;2.05;1.08;;;19.80;99.90;;;;;;4955867;28;20047;-39
2023/08/28 10:25:13;;;;;;;1.50;0.80;;;19.80;99.90;;;;;;4939024;29;20035;-37
2023/08/28 10:27:40;;;;;;;1.67;0.80;;;19.90;99.90;;;;;;4955964;29;20102;-38
2023/08/28 10:30:08;;;;;;;2.20;0.98;;;19.90;99.90;;;;;;4955651;29;20024;-39
2023/08/28 10:32:35;;;;;;;1.70;0.82;;;19.90;99.90;;;;;;4955920;29;20054;-38
2023/08/28 10:35:02;;;;;;;2.05;1.00;;;19.90;99.90;;;;;;4955842;29;20034;-42
2023/08/28 10:37:30;;;;;;;3.42;0.80;;;19.90;99.90;;;;;;4955155;28;20106;-41
2023/08/28 10:40:01;;;;;;;3.45;0.80;;;19.90;99.90;;;;;;4955415;29;20458;-44
2023/08/28 10:42:28;;;;;;;1.35;0.80;;;19.90;99.90;;;;;;4955899;29;20425;-41
2023/08/28 10:44:55;;;;;;;2.83;0.75;;;19.90;99.90;;;;;;4955825;29;20405;-38
2023/08/28 10:47:21;;;;;;;2.65;0.70;;;19.90;99.90;;;;;;4955732;29;20188;-39
2023/08/28 10:49:46;;;;;;;2.90;0.85;;;19.90;99.90;;;;;;4937732;29;20129;-38
2023/08/28 10:52:12;;;;;;;2.92;0.90;;;19.90;99.90;;;;;;4955666;29;20027;-38
2023/08/28 10:54:43;;;;;;;1.50;0.73;;;19.90;99.90;;;;;;4955512;29;20580;-39
2023/08/28 10:57:40;;;;;;;1.45;0.88;;;19.90;99.90;;;;;;4955468;29;20035;-38
2023/08/28 11:00:18;;;;;;;1.35;0.88;;;19.90;99.90;;;;;;4954314;28;20039;-39
2023/08/28 11:03:08;;;;;;;1.23;0.73;;;20.00;99.90;;;;;;4955463;29;20094;-40
2023/08/28 11:05:34;;;;;;;2.25;0.75;;;20.00;99.90;;;;;;4955422;29;20024;-39
2023/08/28 11:08:06;;;;;;;2.80;0.73;;;20.00;99.90;;;;;;4955414;29;20244;-42
2023/08/28 11:10:33;;;;;;;1.63;0.82;;;20.00;99.90;;;;;;4954831;29;20556;-39
2023/08/28 11:13:05;;;;;;;1.23;0.60;;;20.00;99.90;;;;;;4954990;29;20039;-41
2023/08/28 11:15:42;;;;;;;1.02;0.70;;;20.00;99.90;;;;;;4955106;29;20122;-38
2023/08/28 11:18:28;;;;;;;1.00;0.70;;;20.00;99.90;;;;;;4955237;28;20023;-40
2023/08/28 11:21:03;;;;;;;2.50;0.68;;;20.00;99.90;;;;;;4955019;29;20015;-39
2023/08/28 11:23:34;;;;;;;1.33;0.60;;;20.00;99.90;;;;;;4954951;29;20071;-39
2023/08/28 11:26:04;;;;;;;1.35;0.70;;;20.00;99.90;;;;;;4955213;28;20028;-40
2023/08/28 11:28:32;;;;;;;2.30;0.80;;;20.00;99.90;;;;;;4954934;29;20019;-40
2023/08/28 11:31:01;;;;;;;1.80;0.82;;;20.00;99.90;;;;;;4954756;29;20035;-40
2023/08/28 11:33:35;;;;;;;1.38;0.80;;;20.00;99.90;;;;;;4954607;29;20503;-43
2023/08/28 11:36:01;;;;;;;2.10;0.82;;;20.00;99.90;;;;;;4954778;29;20544;-40
2023/08/28 11:38:27;;;;;;;1.10;0.70;;;20.00;99.90;;;;;;4954453;29;20027;-43
2023/08/28 11:40:57;;;;;;;1.88;0.88;;;20.00;99.90;;;;;;4954456;29;20023;-40
2023/08/28 11:43:22;;;;;;;0.80;0.70;;;20.10;99.90;;;;;;4954505;29;20027;-39
2023/08/28 11:45:54;;;;;;;1.75;0.60;;;20.10;99.90;;;;;;4954634;29;20023;-37
2023/08/28 11:48:20;;;;;;;1.08;0.70;;;20.10;99.90;;;;;;4954562;29;20576;-39
2023/08/28 11:50:46;;;;;;;0.82;0.68;;;20.10;99.90;;;;;;4953480;29;20110;-39
2023/08/28 11:53:11;;;;;;;0.88;0.60;;;20.10;99.90;;;;;;4954717;29;20046;-39
2023/08/28 11:55:38;;;;;;;1.20;0.68;;;20.10;99.90;;;;;;4954312;29;20493;-38
2023/08/28 11:58:05;;;;;;;1.13;0.55;;;20.10;99.90;;;;;;4954306;29;20035;-38
2023/08/28 12:00:31;;;;;;;0.98;0.60;;;20.10;99.90;;;;;;4954016;29;20023;-38
2023/08/28 12:02:57;;;;;;;0.90;0.60;;;20.10;99.90;;;;;;4954565;29;20046;-39
2023/08/28 12:05:23;;;;;;;1.20;0.75;;;20.10;99.90;;;;;;4954297;29;20031;-39
2023/08/28 12:07:49;;;;;;;2.78;0.95;;;20.10;99.90;;;;;;4954371;29;20027;-41
2023/08/28 12:10:17;;;;;;;1.13;0.70;;;20.10;99.90;;;;;;4954301;29;20062;-40
2023/08/28 12:12:43;;;;;;;0.80;0.55;;;20.10;99.90;;;;;;4954428;29;20077;-41
2023/08/28 12:15:10;;;;;;;2.17;0.77;;;20.10;99.90;;;;;;4953788;29;20482;-39
2023/08/28 12:17:37;;;;;;;1.48;0.73;;;20.10;99.90;;;;;;4954077;29;20089;-39
2023/08/28 12:20:09;;;;;;;1.50;0.70;;;20.10;99.90;;;;;;4954115;29;20023;-40
2023/08/28 12:22:42;;;;;;;1.30;0.70;;;20.10;99.90;;;;;;4954007;29;20023;-39
2023/08/28 12:25:08;;;;;;;1.00;0.50;;;20.10;99.90;;;;;;4936618;29;20023;-37
2023/08/28 12:27:33;;;;;;;2.65;0.60;;;20.10;99.90;;;;;;4953808;29;20392;-38
2023/08/28 12:29:59;;;;;;;0.90;0.60;;;20.10;99.90;;;;;;4953671;29;20038;-41
2023/08/28 12:32:26;;;;;;;1.25;0.75;;;20.10;99.90;;;;;;4953763;29;20047;-39
2023/08/28 12:34:51;;;;;;;0.90;0.52;;;20.10;99.90;;;;;;4953765;29;20477;-41
2023/08/28 12:37:17;;;;;;;0.77;0.50;;;20.10;99.90;;;;;;4953358;29;20027;-40
2023/08/28 12:39:48;;;;;;;0.80;0.50;;;20.10;99.90;;;;;;4953231;29;20027;-41
2023/08/28 12:42:14;;;;;;;1.48;0.70;;;20.10;99.90;;;;;;4953820;29;20026;-41
2023/08/28 12:44:44;;;;;;;0.70;0.57;;;20.10;99.90;;;;;;4953554;29;20370;-41
2023/08/28 12:47:11;;;;;;;1.40;0.55;;;20.10;99.90;;;;;;4953664;29;20035;-38
2023/08/28 12:49:39;;;;;;;0.80;0.60;;;20.10;99.90;;;;;;4953173;29;20028;-39